Time;durP1;ratioP1;P1;durP2;ratioP2;P2;SDS_P1;SDS_P2;PMS_P1;PMS_P2;Temp;Humidity;BMP_temperature;BMP_pressure;BME280_temperature;BME280_humidity;BME280_pressure;Samples;Min_cycle;Max_cycle;Signal;HPM_P1;HPM_P2
2022/02/28 00:02:27;;;;;;;35.73;21.07;;;;;;;-1.15;78.35;97896.98;1593344;89;21070;-84
2022/02/28 00:05:18;;;;;;;39.92;23.73;;;;;;;-1.21;78.65;97896.38;1689801;85;20989;-83
2022/02/28 00:07:55;;;;;;;46.77;26.05;;;;;;;-1.33;78.60;97892.30;1683208;85;21068;-84
2022/02/28 00:10:46;;;;;;;;;;;;;;;;;;;;;
2022/02/28 00:13:34;;;;;;;43.20;27.82;;;;;;;-1.40;78.96;97890.49;1687750;85;21069;-84
2022/02/28 00:16:09;;;;;;;37.85;24.27;;;;;;;-1.44;79.06;97888.98;1601547;89;21127;-84
2022/02/28 00:18:47;;;;;;;28.45;16.82;;;;;;;-1.44;79.21;97881.80;1615804;85;21072;-83
2022/02/28 00:21:24;;;;;;;43.38;27.58;;;;;;;-1.41;80.15;97888.84;1686248;85;21436;-83
2022/02/28 00:24:01;;;;;;;43.85;25.00;;;;;;;-1.47;79.53;97882.73;1689858;85;21041;-84
2022/02/28 00:29:22;;;;;;;44.45;24.18;;;;;;;-1.49;79.67;97871.78;1598368;88;21512;-84
2022/02/28 00:32:12;;;;;;;;;;;;;;;;;;;;;
2022/02/28 00:34:58;;;;;;;34.27;18.75;;;;;;;-1.58;79.67;97865.41;1538429;93;21206;-83
2022/02/28 00:40:36;;;;;;;32.55;21.00;;;;;;;-1.59;80.22;97862.92;1531116;91;21110;-84
2022/02/28 00:43:55;;;;;;;;;;;;;;;;;;;;;
2022/02/28 00:46:41;;;;;;;45.83;27.77;;;;;;;-1.58;80.28;97868.40;1474424;96;21128;-84
2022/02/28 00:49:44;;;;;;;37.88;22.62;;;;;;;-1.63;80.09;97871.59;1516889;93;21562;-84
2022/02/28 00:52:18;;;;;;;37.93;25.15;;;;;;;-1.62;80.59;97867.72;1550030;91;21113;-84
2022/02/28 00:54:51;;;;;;;42.13;26.10;;;;;;;-1.61;80.72;97873.64;1562960;91;21090;-83
2022/02/28 00:57:31;;;;;;;42.60;25.25;;;;;;;-1.61;80.29;97867.27;1579037;91;21594;-83
2022/02/28 01:00:20;;;;;;;38.63;23.27;;;;;;;-1.63;80.49;97865.22;1567319;91;21501;-84
2022/02/28 01:03:01;;;;;;;43.87;28.42;;;;;;;-1.72;80.57;97864.38;1569598;90;21121;-83
2022/02/28 01:05:36;;;;;;;40.65;22.98;;;;;;;-1.76;80.31;97869.24;1572809;90;21108;-84
2022/02/28 01:08:06;;;;;;;45.38;27.85;;;;;;;-1.72;80.48;97872.02;1544176;91;21492;-83
2022/02/28 01:10:42;;;;;;;49.98;28.62;;;;;;;-1.79;80.76;97863.84;1573054;91;21154;-84
2022/02/28 01:13:39;;;;;;;48.10;30.32;;;;;;;-1.79;80.65;97866.80;1570741;91;21475;-83
2022/02/28 01:19:42;;;;;;;45.55;27.58;;;;;;;-1.73;80.87;97855.08;1483482;92;21516;-84
2022/02/28 01:22:11;;;;;;;40.38;21.95;;;;;;;-1.77;80.70;97848.03;1563093;90;21130;-83
2022/02/28 01:25:03;;;;;;;;;;;;;;;;;;;;;
2022/02/28 01:27:29;;;;;;;44.67;26.70;;;;;;;-1.85;80.78;97843.72;1600023;89;21467;-83
2022/02/28 01:30:18;;;;;;;37.70;23.47;;;;;;;-1.86;80.82;97842.89;1612477;89;21031;-83
2022/02/28 01:32:50;;;;;;;49.83;27.93;;;;;;;-1.84;80.95;97841.55;1611856;89;21063;-84
2022/02/28 01:35:29;;;;;;;45.65;29.52;;;;;;;-1.86;80.74;97840.34;1591353;89;21043;-84
2022/02/28 01:38:03;;;;;;;48.33;28.73;;;;;;;-1.81;80.98;97837.13;1612722;89;21497;-83
2022/02/28 01:40:44;;;;;;;49.05;29.35;;;;;;;-1.71;81.01;97838.81;1612547;89;21486;-84
2022/02/28 01:43:12;;;;;;;45.00;28.90;;;;;;;-1.63;80.79;97836.76;1612419;89;21107;-84
2022/02/28 01:45:59;;;;;;;45.95;27.62;;;;;;;-1.62;80.48;97838.41;1612226;89;22185;-83
2022/02/28 01:48:36;;;;;;;49.27;30.23;;;;;;;-1.59;80.43;97834.89;1612538;89;21079;-83
2022/02/28 01:51:08;;;;;;;30.75;19.35;;;;;;;-1.61;80.27;97831.59;1636148;86;21496;-83
2022/02/28 01:53:43;;;;;;;42.13;25.88;;;;;;;-1.64;80.18;97827.44;1615680;88;21120;-84
2022/02/28 01:56:19;;;;;;;38.73;24.02;;;;;;;-1.74;79.94;97827.95;1636766;88;21022;-83
2022/02/28 01:59:00;;;;;;;46.90;29.42;;;;;;;-1.83;80.43;97825.36;1614445;88;21031;-83
2022/02/28 02:01:46;;;;;;;47.05;28.38;;;;;;;-1.91;80.18;97828.27;1614664;88;21404;-83
2022/02/28 02:07:38;;;;;;;;;;;;;;;;;;;;;
2022/02/28 02:10:16;;;;;;;48.92;30.08;;;;;;;-2.02;81.02;97829.19;1680854;85;21482;-83
2022/02/28 02:12:46;;;;;;;50.08;31.70;;;;;;;-2.04;80.67;97823.80;1686335;85;20993;-83
2022/02/28 02:15:22;;;;;;;47.30;30.72;;;;;;;-2.03;80.65;97821.17;1686640;85;21064;-83
2022/02/28 02:18:08;;;;;;;;;;;;;;;;;;;;;
2022/02/28 02:20:37;;;;;;;48.75;30.08;;;;;;;-2.00;80.63;97815.94;1684200;85;21495;-84
2022/02/28 02:23:11;;;;;;;52.03;29.67;;;;;;;-2.01;80.52;97808.36;1686811;85;21009;-82
2022/02/28 02:25:47;;;;;;;42.58;28.25;;;;;;;-1.97;80.55;97801.78;1686278;85;21113;-83
2022/02/28 02:28:20;;;;;;;46.70;28.52;;;;;;;-1.93;80.46;97808.86;1686442;85;21101;-82
2022/02/28 02:30:53;;;;;;;51.68;31.62;;;;;;;-1.90;80.36;97810.81;1686597;85;21032;-83
2022/02/28 02:36:58;;;;;;;45.88;29.82;;;;;;;-1.81;80.33;97809.55;1673213;85;21097;-83
2022/02/28 02:39:25;;;;;;;51.50;31.15;;;;;;;-1.76;80.19;97808.91;1665036;85;21439;-82
2022/02/28 02:42:15;;;;;;;51.37;32.13;;;;;;;-1.77;80.09;97815.36;1686216;83;21041;-83
2022/02/28 02:45:00;;;;;;;53.78;33.53;;;;;;;-1.76;80.14;97803.81;1647784;86;21086;-83
2022/02/28 02:47:32;;;;;;;50.48;31.62;;;;;;;-1.67;80.26;97805.09;1669267;85;21072;-83
2022/02/28 02:50:13;;;;;;;44.00;29.60;;;;;;;-1.64;79.93;97804.95;1672899;85;21066;-83
2022/02/28 02:52:41;;;;;;;50.30;30.92;;;;;;;-1.67;79.82;97808.47;1671482;86;21007;-83
2022/02/28 02:55:12;;;;;;;51.75;32.60;;;;;;;-1.76;79.50;97809.36;1648496;86;21441;-83
2022/02/28 02:57:47;;;;;;;49.38;30.48;;;;;;;-1.81;79.76;97809.55;1671017;86;21519;-83
2022/02/28 03:00:20;;;;;;;49.73;29.98;;;;;;;-1.75;79.92;97804.64;1671573;86;21126;-83
2022/02/28 03:02:48;;;;;;;45.78;30.10;;;;;;;-1.79;79.78;97798.86;1671677;86;21050;-83
2022/02/28 03:05:25;;;;;;;48.40;30.82;;;;;;;-1.77;79.76;97806.44;1671480;86;21026;-83
2022/02/28 03:07:45;;;;;;;37.80;23.77;;;;;;;-1.79;79.63;97803.11;1668239;86;20998;-83
2022/02/28 03:10:22;;;;;;;49.05;28.62;;;;;;;-1.85;79.45;97801.23;1671728;86;20983;-83
2022/02/28 03:12:53;;;;;;;47.95;30.08;;;;;;;-1.86;79.62;97800.85;1634588;86;21064;-83
2022/02/28 03:15:22;;;;;;;39.35;24.02;;;;;;;-1.82;79.73;97805.35;1670363;84;21146;-83
2022/02/28 03:17:50;;;;;;;51.08;31.50;;;;;;;-1.83;79.41;97813.89;1648588;86;21095;-82
2022/02/28 03:20:22;;;;;;;47.03;30.27;;;;;;;-1.91;79.52;97807.89;1648894;86;21078;-83
2022/02/28 03:22:58;;;;;;;42.55;27.05;;;;;;;-1.93;79.37;97819.05;1671329;86;21016;-83
2022/02/28 03:25:29;;;;;;;43.08;29.98;;;;;;;-1.97;79.50;97814.97;1671086;85;21128;-83
2022/02/28 03:28:24;;;;;;;49.42;29.65;;;;;;;-2.02;79.59;97812.63;1671726;86;21517;-83
2022/02/28 03:30:51;;;;;;;50.38;29.48;;;;;;;-2.04;79.54;97811.88;1563807;92;21487;-82
2022/02/28 03:33:19;;;;;;;31.87;20.05;;;;;;;-2.00;79.62;97815.94;1574300;86;21133;-83
2022/02/28 03:35:48;;;;;;;46.92;28.83;;;;;;;-1.96;79.56;97821.27;1671561;86;21079;-83
2022/02/28 03:38:16;;;;;;;44.45;28.38;;;;;;;-1.97;79.57;97814.97;1671534;86;20983;-83
2022/02/28 03:40:45;;;;;;;44.98;28.57;;;;;;;-1.97;79.41;97818.78;1671601;86;21074;-83
2022/02/28 03:43:11;;;;;;;47.25;30.00;;;;;;;-1.96;79.54;97813.62;1671527;86;21078;-83
2022/02/28 03:45:41;;;;;;;31.05;21.97;;;;;;;-2.04;79.30;97812.33;1646813;86;21183;-83
2022/02/28 03:48:10;;;;;;;41.18;27.45;;;;;;;-2.10;79.23;97810.07;1671288;85;21416;-82
2022/02/28 03:50:38;;;;;;;49.08;27.98;;;;;;;-2.20;79.31;97806.64;1655463;85;21479;-83
2022/02/28 03:53:09;;;;;;;45.03;28.07;;;;;;;-2.29;79.38;97821.49;1683908;85;21096;-83
2022/02/28 03:55:37;;;;;;;40.90;24.98;;;;;;;-2.34;79.59;97818.33;1684254;85;21032;-83
2022/02/28 03:58:06;;;;;;;50.20;28.77;;;;;;;-2.36;79.73;97809.48;1684325;83;21098;-83
2022/02/28 04:00:34;;;;;;;46.95;29.77;;;;;;;-2.43;79.76;97814.03;1692504;85;21007;-82
2022/02/28 04:03:03;;;;;;;47.38;29.02;;;;;;;-2.47;79.89;97811.22;1695060;85;21484;-83
2022/02/28 04:05:34;;;;;;;51.95;31.45;;;;;;;-2.40;80.18;97816.89;1694362;85;21500;-83
2022/02/28 04:08:15;;;;;;;;;;;;;;;;;;;;;
2022/02/28 04:10:56;;;;;;;44.42;26.70;;;;;;;-2.36;80.08;97813.31;1690647;85;21011;-83
2022/02/28 04:13:24;;;;;;;45.08;29.20;;;;;;;-2.34;80.17;97812.79;1695795;84;20971;-82
2022/02/28 04:15:53;;;;;;;44.27;27.85;;;;;;;-2.28;80.33;97812.95;1694952;84;21090;-83
2022/02/28 04:18:21;;;;;;;43.33;24.67;;;;;;;-2.26;80.15;97813.30;1672188;85;21375;-83
2022/02/28 04:20:47;;;;;;;47.08;31.07;;;;;;;-2.29;80.03;97808.31;1693676;84;21067;-83
2022/02/28 04:23:21;;;;;;;45.63;27.02;;;;;;;-2.34;80.04;97804.33;1695273;85;21201;-82
2022/02/28 04:25:46;;;;;;;45.55;26.68;;;;;;;-2.34;79.92;97808.97;1695622;85;21120;-83
2022/02/28 04:28:14;;;;;;;48.02;28.40;;;;;;;-2.37;79.81;97821.84;1695497;85;21192;-83
2022/02/28 04:30:40;;;;;;;47.40;30.57;;;;;;;-2.48;79.57;97814.66;1694663;85;21118;-82
2022/02/28 04:33:10;;;;;;;51.68;31.30;;;;;;;-2.46;79.82;97821.78;1694880;85;21132;-82
2022/02/28 04:35:36;;;;;;;50.90;31.45;;;;;;;-2.45;79.75;97823.43;1695448;84;21026;-83
2022/02/28 04:38:10;;;;;;;46.35;29.15;;;;;;;-2.41;80.04;97821.60;1695555;85;21043;-83
2022/02/28 04:40:37;;;;;;;46.58;29.25;;;;;;;-2.35;80.05;97818.78;1695577;85;21023;-83
2022/02/28 04:43:04;;;;;;;49.75;30.48;;;;;;;-2.38;79.75;97824.45;1695137;85;21409;-82
2022/02/28 04:45:30;;;;;;;49.77;32.70;;;;;;;-2.38;79.99;97822.73;1695552;85;20991;-83
2022/02/28 04:47:56;;;;;;;54.48;33.85;;;;;;;-2.29;80.03;97825.31;1695343;85;21014;-83
2022/02/28 04:50:36;;;;;;;56.30;34.05;;;;;;;-2.35;79.82;97814.13;1694806;84;21031;-83
2022/02/28 04:53:02;;;;;;;52.53;35.35;;;;;;;-2.29;79.78;97821.05;1667878;86;20997;-83
2022/02/28 04:55:29;;;;;;;58.30;35.98;;;;;;;-2.25;79.87;97814.13;1667760;86;21024;-83
2022/02/28 04:57:58;;;;;;;58.70;37.88;;;;;;;-2.23;79.85;97815.70;1667838;86;21048;-83
2022/02/28 05:00:23;;;;;;;62.45;36.23;;;;;;;-2.24;79.57;97818.31;1667996;86;21045;-82
2022/02/28 05:02:52;;;;;;;62.53;36.45;;;;;;;-2.22;79.65;97817.80;1667750;86;21161;-83
2022/02/28 05:05:21;;;;;;;58.78;36.60;;;;;;;-2.22;79.62;97821.17;1667991;86;21020;-83
2022/02/28 05:07:47;;;;;;;52.85;30.75;;;;;;;-2.28;79.24;97823.14;1667971;86;21000;-83
2022/02/28 05:10:13;;;;;;;80.03;41.00;;;;;;;-2.34;79.33;97822.15;1667877;86;21029;-83
2022/02/28 05:12:42;;;;;;;69.35;39.78;;;;;;;-2.49;79.25;97814.28;1667856;86;21075;-83
2022/02/28 05:15:09;;;;;;;63.17;37.60;;;;;;;-2.49;79.44;97820.64;1667961;86;21052;-83
2022/02/28 05:18:13;;;;;;;62.50;36.65;;;;;;;-2.46;79.57;97817.14;1667635;86;21418;-83
2022/02/28 05:20:39;;;;;;;60.30;35.75;;;;;;;-2.45;79.44;97817.52;1596624;87;21255;-82
2022/02/28 05:23:07;;;;;;;60.58;37.55;;;;;;;-2.47;79.35;97825.67;1665880;85;21461;-82
2022/02/28 05:25:35;;;;;;;64.27;38.50;;;;;;;-2.48;79.25;97821.47;1640775;87;21043;-83
2022/02/28 05:28:01;;;;;;;58.28;33.88;;;;;;;-2.52;79.12;97818.23;1667587;86;21540;-82
2022/02/28 05:30:27;;;;;;;54.40;33.33;;;;;;;-2.52;79.18;97822.50;1640962;87;21051;-83
2022/02/28 05:36:47;;;;;;;;;;;;;;;;;;;;;
2022/02/28 05:39:06;;;;;;;61.00;35.45;;;;;;;-2.68;79.38;97833.78;1553193;92;21476;-83
2022/02/28 05:41:32;;;;;;;55.05;36.75;;;;;;;-2.65;79.50;97834.09;1577929;86;21021;-83
2022/02/28 05:43:58;;;;;;;54.67;33.75;;;;;;;-2.69;79.44;97838.48;1667704;86;21043;-82
2022/02/28 05:46:26;;;;;;;59.77;35.70;;;;;;;-2.78;79.36;97837.59;1667817;86;21029;-82
2022/02/28 05:49:07;;;;;;;59.95;37.15;;;;;;;-2.85;79.46;97842.12;1668178;86;21101;-83
2022/02/28 05:52:16;;;;;;;60.98;37.28;;;;;;;-2.89;79.58;97843.59;1538073;91;21254;-82
2022/02/28 05:55:17;;;;;;;;;;;;;;;;;;;;;
2022/02/28 05:57:41;;;;;;;58.95;37.25;;;;;;;-2.88;79.72;97846.51;1560106;90;21206;-83
2022/02/28 06:00:08;;;;;;;62.53;38.83;;;;;;;-2.82;79.95;97847.07;1610352;86;21014;-82
2022/02/28 06:02:34;;;;;;;62.67;39.27;;;;;;;-2.78;79.98;97852.85;1646634;87;21481;-82
2022/02/28 06:05:02;;;;;;;63.00;39.40;;;;;;;-2.81;79.76;97851.27;1617324;87;20991;-83
2022/02/28 06:07:28;;;;;;;65.45;40.63;;;;;;;-2.80;79.94;97855.91;1640551;87;21044;-83
2022/02/28 06:09:53;;;;;;;65.90;39.67;;;;;;;-2.74;80.11;97855.67;1640911;87;21089;-83
2022/02/28 06:12:19;;;;;;;66.37;38.98;;;;;;;-2.71;79.92;97850.45;1640878;87;21193;-83
2022/02/28 06:14:47;;;;;;;64.55;38.95;;;;;;;-2.68;80.01;97847.77;1640929;87;21443;-82
2022/02/28 06:17:12;;;;;;;67.70;40.40;;;;;;;-2.72;79.87;97848.80;1640431;87;21028;-83
2022/02/28 06:20:17;;;;;;;61.95;38.83;;;;;;;-2.70;79.97;97857.19;1640858;87;21035;-83
2022/02/28 06:22:53;;;;;;;60.63;40.20;;;;;;;-2.64;80.07;97854.38;1538159;92;21196;-83
2022/02/28 06:26:10;;;;;;;58.68;36.20;;;;;;;-2.79;79.98;97861.38;1647442;87;21032;-83
2022/02/28 06:28:39;;;;;;;62.33;38.88;;;;;;;-2.84;80.45;97860.30;1547438;91;21229;-82
2022/02/28 06:31:46;;;;;;;;;;;;;;;;;;;;;
2022/02/28 06:37:50;;;;;;;;;;;;;;;;;;;;;
2022/02/28 06:43:45;;;;;;;52.45;28.70;;;;;;;-2.73;80.96;97872.59;1308997;101;21524;-83
2022/02/28 06:46:11;;;;;;;54.08;32.93;;;;;;;-2.67;80.72;97876.59;1474639;97;21104;-83
2022/02/28 06:48:38;;;;;;;47.98;30.52;;;;;;;-2.46;81.03;97876.95;1529924;93;21044;-84
2022/02/28 06:51:04;;;;;;;35.65;21.40;;;;;;;-2.46;81.03;97876.95;1627844;87;21125;-83
2022/02/28 06:53:30;;;;;;;43.50;27.32;;;;;;;-2.39;80.70;97880.91;1639130;87;21109;-83
2022/02/28 06:55:56;;;;;;;53.48;31.73;;;;;;;-2.52;80.38;97875.50;1638865;87;21462;-83
2022/02/28 06:58:22;;;;;;;38.08;23.98;;;;;;;-2.59;80.54;97883.47;1638631;87;21194;-83
2022/02/28 07:00:52;;;;;;;50.60;31.35;;;;;;;-2.68;80.72;97889.75;1638967;87;21000;-83
2022/02/28 07:03:19;;;;;;;44.27;26.52;;;;;;;-2.71;80.88;97888.61;1638707;87;21664;-83
2022/02/28 07:05:48;;;;;;;52.13;30.10;;;;;;;-2.69;80.99;97884.73;1634082;87;21046;-83
2022/02/28 07:08:12;;;;;;;42.50;26.62;;;;;;;-2.71;80.91;97889.89;1638924;87;21156;-83
2022/02/28 07:10:38;;;;;;;44.33;28.42;;;;;;;-2.63;80.91;97880.20;1639076;87;21596;-83
2022/02/28 07:13:05;;;;;;;39.20;26.97;;;;;;;-2.58;80.49;97883.41;1639106;87;21050;-83
2022/02/28 07:15:31;;;;;;;39.73;27.17;;;;;;;-2.55;80.31;97893.45;1638772;87;21045;-83
2022/02/28 07:17:56;;;;;;;40.08;26.15;;;;;;;-2.50;80.26;97883.89;1638860;87;21055;-83
2022/02/28 07:20:24;;;;;;;41.68;26.97;;;;;;;-2.44;80.27;97888.75;1638717;87;21467;-83
2022/02/28 07:22:49;;;;;;;43.48;25.77;;;;;;;-2.40;80.16;97890.71;1638907;87;21065;-83
2022/02/28 07:25:15;;;;;;;42.23;26.87;;;;;;;-2.32;80.34;97898.01;1639017;87;21016;-83
2022/02/28 07:27:41;;;;;;;43.55;26.82;;;;;;;-2.26;80.14;97894.77;1638850;87;21490;-83
2022/02/28 07:30:08;;;;;;;36.45;24.35;;;;;;;-2.20;80.05;97903.86;1643037;85;21112;-83
2022/02/28 07:32:33;;;;;;;38.02;24.85;;;;;;;-2.17;79.87;97907.09;1638014;87;21092;-83
2022/02/28 07:35:01;;;;;;;34.88;22.73;;;;;;;-2.19;79.47;97909.33;1631287;86;21020;-83
2022/02/28 07:37:27;;;;;;;36.38;25.60;;;;;;;-2.21;79.28;97918.31;1665687;86;21095;-83
2022/02/28 07:39:55;;;;;;;37.85;25.10;;;;;;;-2.20;79.39;97917.86;1664969;86;21100;-83
2022/02/28 07:42:20;;;;;;;34.33;21.87;;;;;;;-2.21;79.48;97922.58;1665886;86;21459;-83
2022/02/28 07:44:46;;;;;;;31.17;19.77;;;;;;;-2.17;79.50;97921.09;1665601;86;21523;-83
2022/02/28 07:47:15;;;;;;;28.05;18.37;;;;;;;-2.08;78.99;97919.89;1665946;86;21053;-83
2022/02/28 07:49:44;;;;;;;24.15;17.95;;;;;;;-2.07;78.73;97927.91;1665983;86;21040;-83
2022/02/28 07:52:10;;;;;;;29.67;18.32;;;;;;;-2.00;78.47;97918.27;1665891;84;21072;-83
2022/02/28 07:54:39;;;;;;;27.30;16.35;;;;;;;-1.99;78.04;97918.65;1665948;86;21033;-83
2022/02/28 07:57:04;;;;;;;23.45;15.20;;;;;;;-1.95;78.32;97927.39;1665967;86;21051;-83
2022/02/28 07:59:30;;;;;;;25.57;15.95;;;;;;;-1.86;78.50;97925.69;1665883;86;21387;-83
2022/02/28 08:01:56;;;;;;;21.68;14.75;;;;;;;-1.85;77.76;97931.17;1665766;86;21536;-83
2022/02/28 08:04:22;;;;;;;14.50;10.70;;;;;;;-1.78;77.60;97929.64;1665967;86;21001;-83
2022/02/28 08:06:48;;;;;;;20.15;14.85;;;;;;;-1.78;77.04;97928.37;1665887;86;21030;-83
2022/02/28 08:09:16;;;;;;;23.67;16.52;;;;;;;-1.88;77.15;97932.58;1642919;86;21495;-83
2022/02/28 08:11:47;;;;;;;21.00;15.00;;;;;;;-1.81;77.36;97940.77;1665929;86;21085;-83
2022/02/28 08:14:15;;;;;;;23.65;15.72;;;;;;;-1.82;77.07;97933.58;1665809;86;21036;-83
2022/02/28 08:16:41;;;;;;;18.23;13.85;;;;;;;-1.79;77.10;97936.46;1666021;86;21064;-84
2022/02/28 08:19:07;;;;;;;24.27;15.85;;;;;;;-1.73;77.15;97944.27;1666105;86;21020;-83
2022/02/28 08:21:35;;;;;;;22.37;14.93;;;;;;;-1.65;77.38;97943.47;1665766;86;21519;-83
2022/02/28 08:24:02;;;;;;;18.32;13.58;;;;;;;-1.54;77.16;97950.20;1665400;86;21093;-83
2022/02/28 08:26:28;;;;;;;18.55;12.68;;;;;;;-1.50;76.76;97945.34;1666020;86;21005;-83
2022/02/28 08:28:58;;;;;;;20.27;12.95;;;;;;;-1.42;76.35;97953.93;1643114;86;21131;-83
2022/02/28 08:31:25;;;;;;;20.40;14.30;;;;;;;-1.41;76.35;97946.66;1665820;86;21013;-83
2022/02/28 08:33:51;;;;;;;21.40;12.75;;;;;;;-1.41;75.80;97955.13;1665136;86;21017;-83
2022/02/28 08:36:19;;;;;;;20.02;13.38;;;;;;;-1.48;75.15;97949.91;1665830;86;21035;-84
2022/02/28 08:38:47;;;;;;;21.00;12.98;;;;;;;-1.45;75.70;97952.35;1664902;86;21033;-84
2022/02/28 08:41:15;;;;;;;17.48;13.13;;;;;;;-1.34;75.45;97954.39;1665906;86;21681;-83
2022/02/28 08:43:41;;;;;;;17.23;12.33;;;;;;;-1.34;75.12;97955.67;1663674;86;21205;-84
2022/02/28 08:46:08;;;;;;;15.32;10.30;;;;;;;-1.34;74.63;97962.88;1665605;86;21374;-83
2022/02/28 08:48:36;;;;;;;18.25;13.18;;;;;;;-1.35;74.45;97962.49;1666044;86;21221;-83
2022/02/28 08:54:39;;;;;;;;;;;;;;;;;;;;;
2022/02/28 09:00:00;;;;;;;17.42;12.80;;;;;;;-1.33;74.79;97972.63;1579580;88;21079;-83
2022/02/28 09:05:34;;;;;;;13.90;9.98;;;;;;;-1.29;73.92;97980.53;1577855;90;21654;-84
2022/02/28 09:09:09;;;;;;;12.98;9.48;;;;;;;-1.36;73.37;97977.42;1664805;84;21094;-84
2022/02/28 09:11:37;;;;;;;10.93;8.35;;;;;;;-1.30;72.99;97980.98;1626891;84;21469;-84
2022/02/28 09:14:03;;;;;;;12.35;8.88;;;;;;;-1.15;73.44;97972.23;1643015;86;21065;-84
2022/02/28 09:16:31;;;;;;;19.40;12.80;;;;;;;-1.06;72.15;97966.27;1673927;84;21054;-84
2022/02/28 09:19:03;;;;;;;14.80;10.48;;;;;;;-0.99;73.20;97959.97;1665847;86;21124;-85
2022/02/28 09:21:39;;;;;;;16.60;11.85;;;;;;;-0.96;72.68;97967.50;1665068;86;21093;-84
2022/02/28 09:24:05;;;;;;;17.07;11.48;;;;;;;-1.00;72.74;97971.52;1665982;86;21090;-84
2022/02/28 09:26:36;;;;;;;15.72;12.13;;;;;;;-0.97;72.54;97969.67;1674100;84;21039;-84
2022/02/28 09:29:09;;;;;;;20.50;13.05;;;;;;;-0.88;72.72;97968.86;1666146;86;21068;-84
2022/02/28 09:31:41;;;;;;;12.75;9.73;;;;;;;-0.85;72.09;97977.19;1665553;86;21080;-84
2022/02/28 09:34:13;;;;;;;16.52;10.65;;;;;;;-0.84;71.62;97962.25;1664967;86;21089;-83
2022/02/28 09:36:41;;;;;;;16.55;10.45;;;;;;;-0.83;71.39;97977.11;1663073;86;21045;-84
2022/02/28 09:39:07;;;;;;;17.12;10.38;;;;;;;-0.76;72.11;97983.14;1665745;86;21080;-84
2022/02/28 09:41:35;;;;;;;14.50;10.28;;;;;;;-0.76;71.04;97984.42;1697102;84;22002;-84
2022/02/28 09:44:06;;;;;;;11.48;8.93;;;;;;;-0.80;70.66;97984.20;1643811;86;21044;-84
2022/02/28 09:46:34;;;;;;;14.85;9.50;;;;;;;-0.72;71.04;97994.03;1696922;84;21019;-84
2022/02/28 09:49:03;;;;;;;11.12;7.70;;;;;;;-0.70;70.18;97984.12;1663713;86;21112;-84
2022/02/28 09:51:38;;;;;;;17.02;11.40;;;;;;;-0.58;69.46;97991.66;1665633;85;20981;-84
2022/02/28 09:54:07;;;;;;;12.50;8.65;;;;;;;-0.45;71.02;98002.11;1668002;86;21017;-84
2022/02/28 09:57:22;;;;;;;;;;;;;;;;;;;;;
2022/02/28 10:07:37;;;;;;;12.20;8.45;;;;;;;-0.40;70.17;97987.38;1472999;97;21090;-84
2022/02/28 10:10:46;;;;;;;12.85;8.50;;;;;;;-0.37;70.06;97982.12;1428873;99;21212;-83
2022/02/28 10:13:28;;;;;;;;;;;;;;;;;;;;;
2022/02/28 10:16:08;;;;;;;9.70;7.28;;;;;;;-0.38;69.97;97989.41;1432042;98;21532;-83
2022/02/28 10:25:43;;;;;;;11.10;7.53;;;;;;;-0.23;68.70;97989.94;1458945;97;21130;-83
2022/02/28 10:28:43;;;;;;;11.95;7.40;;;;;;;-0.06;68.67;97983.98;1489873;96;21867;-83
2022/02/28 10:31:24;;;;;;;10.70;7.30;;;;;;;0.08;68.40;97982.84;1616795;86;21128;-83
2022/02/28 10:34:17;;;;;;;11.90;7.55;;;;;;;0.18;68.59;97977.65;1659412;86;21010;-83
2022/02/28 10:37:07;;;;;;;8.68;6.37;;;;;;;0.17;68.31;97990.05;1662722;86;21037;-83
2022/02/28 10:39:39;;;;;;;11.15;7.22;;;;;;;0.13;66.83;97996.66;1662963;86;21077;-83
2022/02/28 10:42:18;;;;;;;9.80;6.95;;;;;;;0.06;67.71;97994.05;1662967;86;21060;-83
2022/02/28 10:45:17;;;;;;;9.15;6.95;;;;;;;0.03;66.51;97990.38;1640616;86;21029;-83
2022/02/28 10:47:53;;;;;;;9.60;6.78;;;;;;;-0.01;66.89;97995.62;1606248;88;21359;-83
2022/02/28 10:50:42;;;;;;;10.18;7.00;;;;;;;0.05;67.92;97994.50;1629659;88;21027;-83
2022/02/28 10:53:23;;;;;;;8.88;6.53;;;;;;;0.13;67.56;98002.59;1625074;88;21536;-83
2022/02/28 10:55:56;;;;;;;9.40;6.83;;;;;;;0.14;66.85;97991.92;1614782;88;21151;-83
2022/02/28 10:58:38;;;;;;;9.08;6.45;;;;;;;0.02;65.42;97990.83;1636622;86;21023;-83
2022/02/28 11:20:34;;;;;;;;;;;;;;;;;;;;;
2022/02/28 12:09:51;;;;;;;;;;;;;;;;;;;;;
2022/02/28 12:24:14;;;;;;;;;;;;;;;;;;;;;
2022/02/28 12:32:28;;;;;;;;;;;;;;;;;;;;;
2022/02/28 12:42:25;;;;;;;;;;;;;;;;;;;;;
2022/02/28 13:47:31;;;;;;;;;;;;;;;;;;;;;
2022/02/28 14:17:10;;;;;;;;;;;;;;;;;;;;;
2022/02/28 15:22:49;;;;;;;;;;;;;;;;;;;;;
2022/02/28 15:42:00;;;;;;;;;;;;;;;;;;;;;
2022/02/28 15:49:07;;;;;;;7.80;4.95;;;;;;;0.35;62.29;98139.15;1431699;100;21206;-84
2022/02/28 15:52:55;;;;;;;;;;;;;;;;;;;;;
2022/02/28 17:05:46;;;;;;;;;;;;;;;;;;;;;
2022/02/28 17:50:57;;;;;;;;;;;;;;;;;;;;;
2022/02/28 18:20:56;;;;;;;;;;;;;;;;;;;;;
2022/02/28 18:36:07;;;;;;;;;;;;;;;;;;;;;
2022/02/28 20:19:21;;;;;;;;;;;;;;;;;;;;;
2022/02/28 20:25:30;;;;;;;;;;;;;;;;;;;;;
2022/02/28 20:40:16;;;;;;;;;;;;;;;;;;;;;
2022/02/28 20:47:01;;;;;;;;;;;;;;;;;;;;;
2022/02/28 21:42:24;;;;;;;;;;;;;;;;;;;;;
2022/02/28 22:06:34;;;;;;;;;;;;;;;;;;;;;
2022/02/28 22:44:59;;;;;;;;;;;;;;;;;;;;;
2022/02/28 22:55:20;;;;;;;16.23;11.60;;;;;;;-1.92;70.10;98177.36;1218616;116;21283;-82
2022/02/28 23:04:15;;;;;;;44.48;25.48;;;;;;;-1.91;70.33;98187.49;1320225;107;21208;-83
2022/02/28 23:20:42;;;;;;;63.98;34.08;;;;;;;-1.99;71.23;98170.39;1253130;112;21706;-83
2022/02/28 23:24:00;;;;;;;79.67;37.70;;;;;;;-2.07;71.28;98186.44;1283654;110;21289;-83
2022/02/28 23:27:17;;;;;;;;;;;;;;;;;;;;;
2022/02/28 23:35:56;;;;;;;65.00;33.98;;;;;;;-2.08;72.31;98179.69;1327215;107;21595;-83
2022/02/28 23:39:02;;;;;;;;;;;;;;;;;;;;;
2022/02/28 23:41:58;;;;;;;53.75;31.62;;;;;;;-2.24;72.65;98184.98;1274232;111;21261;-83
2022/02/28 23:45:25;;;;;;;;;;;;;;;;;;;;;
2022/02/28 23:48:24;;;;;;;;;;;;;;;;;;;;;
2022/02/28 23:54:29;;;;;;;;;;;;;;;;;;;;;
2022/02/28 23:57:29;;;;;;;70.17;40.10;;;;;;;-2.20;73.58;98188.62;1393241;102;21157;-84
